createdAt,value
2018-12-13T00:02:23.339Z,9.73
2018-12-13T00:04:52.472Z,9.80
2018-12-13T00:07:21.667Z,11.50
2018-12-13T00:12:29.985Z,11.67
2018-12-13T00:14:59.102Z,11.00
2018-12-13T00:17:28.152Z,10.00
2018-12-13T00:19:57.308Z,9.20
2018-12-13T00:22:26.684Z,10.45
2018-12-13T00:24:55.702Z,10.67
2018-12-13T00:27:25.024Z,11.10
2018-12-13T00:29:54.072Z,11.53
2018-12-13T00:35:02.356Z,11.13
2018-12-13T00:37:31.424Z,11.83
2018-12-13T00:40:00.499Z,11.68
2018-12-13T00:45:08.935Z,11.30
2018-12-13T00:50:16.192Z,11.23
2018-12-13T00:55:24.508Z,12.50
2018-12-13T00:57:53.568Z,12.65
2018-12-13T01:00:22.691Z,11.07
2018-12-13T01:05:29.967Z,13.63
2018-12-13T01:07:59.100Z,12.30
2018-12-13T01:10:28.111Z,12.97
2018-12-13T01:12:57.135Z,13.10
2018-12-13T01:18:07.239Z,12.80
2018-12-13T01:23:15.517Z,13.40
2018-12-13T01:25:44.692Z,12.33
2018-12-13T01:28:14.105Z,11.97
2018-12-13T01:30:44.084Z,12.60
2018-12-13T01:35:52.913Z,9.37
2018-12-13T01:38:22.035Z,7.47
2018-12-13T01:40:51.211Z,8.05
2018-12-13T01:43:21.344Z,6.80
2018-12-13T01:45:50.439Z,5.83
2018-12-13T01:50:57.876Z,5.80
2018-12-13T01:53:26.967Z,7.60
2018-12-13T01:55:56.155Z,5.80
2018-12-13T01:58:25.242Z,6.78
2018-12-13T02:00:54.385Z,6.80
2018-12-13T02:03:23.619Z,7.08
2018-12-13T02:08:33.916Z,6.67
2018-12-13T02:11:03.089Z,7.30
2018-12-13T02:13:32.223Z,6.97
2018-12-13T02:18:40.513Z,7.80
2018-12-13T02:21:09.619Z,6.60
2018-12-13T02:23:38.750Z,6.63
2018-12-13T02:28:46.993Z,7.17
2018-12-13T02:31:16.143Z,7.60
2018-12-13T02:33:45.242Z,7.47
2018-12-13T02:36:14.844Z,8.15
2018-12-13T02:38:45.044Z,6.48
2018-12-13T02:41:14.984Z,6.12
2018-12-13T02:43:45.072Z,7.03
2018-12-13T02:46:15.993Z,6.53
2018-12-13T02:48:45.149Z,7.30
2018-12-13T02:51:15.148Z,6.78
2018-12-13T02:53:45.062Z,7.60
2018-12-13T02:58:52.737Z,6.93
2018-12-13T03:01:21.995Z,7.93
2018-12-13T03:03:51.162Z,6.92
2018-12-13T03:06:20.694Z,8.87
2018-12-13T03:08:49.884Z,7.20
2018-12-13T03:11:18.990Z,8.37
2018-12-13T03:13:48.166Z,8.07
2018-12-13T03:16:18.100Z,7.50
2018-12-13T03:18:47.336Z,8.47
2018-12-13T03:21:16.502Z,10.33
2018-12-13T03:23:45.621Z,8.17
2018-12-13T03:26:15.551Z,9.43
2018-12-13T03:28:45.616Z,9.60
2018-12-13T03:31:15.566Z,9.80
2018-12-13T03:33:45.498Z,10.55
2018-12-13T03:36:15.697Z,9.60
2018-12-13T03:38:45.716Z,9.90
2018-12-13T03:41:15.650Z,9.90
2018-12-13T03:43:45.657Z,9.83
2018-12-13T03:46:15.628Z,9.65
2018-12-13T03:48:45.661Z,10.03
2018-12-13T03:51:15.762Z,8.45
2018-12-13T03:56:24.820Z,10.90
2018-12-13T03:58:53.924Z,11.75
2018-12-13T04:01:23.070Z,12.07
2018-12-13T04:03:52.176Z,10.78
2018-12-13T04:09:00.512Z,11.77
2018-12-13T04:11:29.617Z,9.33
2018-12-13T04:13:59.408Z,10.50
2018-12-13T04:16:28.536Z,11.70
2018-12-13T04:21:37.941Z,12.27
2018-12-13T04:24:07.000Z,13.00
2018-12-13T04:26:36.086Z,11.47
2018-12-13T04:31:43.873Z,11.90
2018-12-13T04:34:12.980Z,12.00
2018-12-13T04:39:22.771Z,10.63
2018-12-13T04:44:32.590Z,12.97
2018-12-13T04:49:39.868Z,12.20
2018-12-13T04:54:48.556Z,11.50
2018-12-13T04:57:18.062Z,13.17
2018-12-13T05:02:26.203Z,11.13
2018-12-13T05:04:55.343Z,12.15
2018-12-13T05:07:24.357Z,11.25
2018-12-13T05:09:54.092Z,10.53
2018-12-13T05:12:23.180Z,12.80
2018-12-13T05:14:52.396Z,13.18
2018-12-13T05:17:21.520Z,12.34
2018-12-13T05:19:50.569Z,14.00
2018-12-13T05:22:19.831Z,13.00
2018-12-13T05:24:48.972Z,12.47
2018-12-13T05:27:18.091Z,14.33
2018-12-13T05:29:47.279Z,13.50
2018-12-13T05:32:18.001Z,14.23
2018-12-13T05:34:48.318Z,13.83
2018-12-13T05:39:57.309Z,13.70
2018-12-13T05:42:26.419Z,14.07
2018-12-13T05:44:55.539Z,12.67
2018-12-13T05:47:24.629Z,14.80
2018-12-13T05:49:53.780Z,13.90
2018-12-13T05:52:22.902Z,15.10
2018-12-13T05:57:30.292Z,13.80
2018-12-13T05:59:59.407Z,12.37
2018-12-13T06:02:28.537Z,13.30
2018-12-13T06:04:57.612Z,13.50
2018-12-13T06:07:26.828Z,14.50
2018-12-13T06:09:56.016Z,15.90
2018-12-13T06:12:25.180Z,14.95
2018-12-13T06:14:54.378Z,12.83
2018-12-13T06:17:23.581Z,14.90
2018-12-13T06:22:31.821Z,14.30
2018-12-13T06:25:00.896Z,14.10
2018-12-13T06:27:30.108Z,16.90
2018-12-13T06:29:59.281Z,15.25
2018-12-13T06:32:28.584Z,14.13
2018-12-13T06:34:57.688Z,14.30
2018-12-13T06:37:26.843Z,15.85
2018-12-13T06:39:56.003Z,15.30
2018-12-13T06:42:25.108Z,15.80
2018-12-13T06:47:32.897Z,17.13
2018-12-13T06:50:02.055Z,16.00
2018-12-13T06:52:31.296Z,17.73
2018-12-13T06:57:38.666Z,14.70
2018-12-13T07:00:09.468Z,16.70
2018-12-13T07:02:38.660Z,17.27
2018-12-13T07:05:07.960Z,16.03
2018-12-13T07:07:37.040Z,15.10
2018-12-13T07:10:06.289Z,16.27
2018-12-13T07:12:35.400Z,17.73
2018-12-13T07:15:06.324Z,15.90
2018-12-13T07:20:14.584Z,17.07
2018-12-13T07:25:27.336Z,16.73
2018-12-13T07:27:56.698Z,15.63
2018-12-13T07:33:05.672Z,15.47
2018-12-13T07:38:14.392Z,15.30
2018-12-13T07:40:43.872Z,12.83
2018-12-13T07:43:13.045Z,14.90
2018-12-13T07:45:42.113Z,12.70
2018-12-13T07:48:11.137Z,12.90
2018-12-13T07:50:40.240Z,13.63
2018-12-13T07:53:09.412Z,15.50
2018-12-13T07:55:38.480Z,14.30
2018-12-13T08:00:46.256Z,14.20
2018-12-13T08:03:15.340Z,14.73
2018-12-13T08:05:44.469Z,13.50
2018-12-13T08:08:13.696Z,16.00
2018-12-13T08:13:22.496Z,12.97
2018-12-13T08:15:51.604Z,14.50
2018-12-13T08:21:02.815Z,12.80
2018-12-13T08:23:31.960Z,12.37
2018-12-13T08:26:01.065Z,10.57
2018-12-13T08:28:30.264Z,15.20
2018-12-13T08:30:59.451Z,13.93
2018-12-13T08:33:28.641Z,12.80
2018-12-13T08:35:57.816Z,12.67
2018-12-13T08:38:27.482Z,12.47
2018-12-13T08:40:56.887Z,14.10
2018-12-13T08:43:25.999Z,12.87
2018-12-13T08:45:55.123Z,13.13
2018-12-13T08:48:24.204Z,13.40
2018-12-13T08:50:54.310Z,13.83
2018-12-13T08:53:23.652Z,13.30
2018-12-13T08:58:32.257Z,16.37
2018-12-13T09:01:01.549Z,12.78
2018-12-13T09:03:30.556Z,14.18
2018-12-13T09:05:59.892Z,12.83
2018-12-13T09:08:33.588Z,13.47
2018-12-13T09:11:00.096Z,13.00
2018-12-13T09:13:29.188Z,10.73
2018-12-13T09:15:58.527Z,12.43
2018-12-13T09:18:27.700Z,13.57
2018-12-13T09:20:56.984Z,15.85
2018-12-13T09:23:26.244Z,13.67
2018-12-13T09:25:55.415Z,13.27
2018-12-13T09:28:24.541Z,12.78
2018-12-13T09:30:53.772Z,12.80
2018-12-13T09:33:22.911Z,13.53
2018-12-13T09:35:52.117Z,12.35
2018-12-13T09:41:00.359Z,13.00
2018-12-13T09:43:30.549Z,11.80
2018-12-13T09:45:59.634Z,12.77
2018-12-13T09:48:28.699Z,13.87
2018-12-13T09:50:57.791Z,12.90
2018-12-13T09:53:27.012Z,13.40
2018-12-13T09:58:35.272Z,13.13
2018-12-13T10:01:04.506Z,12.00
2018-12-13T10:03:33.564Z,10.27
2018-12-13T10:06:02.768Z,11.77
2018-12-13T10:08:31.836Z,13.13
2018-12-13T10:11:00.988Z,13.03
2018-12-13T10:13:30.152Z,13.13
2018-12-13T10:18:38.418Z,13.37
2018-12-13T10:21:07.669Z,12.87
2018-12-13T10:23:36.684Z,12.93
2018-12-13T10:26:05.963Z,10.97
2018-12-13T10:28:35.062Z,11.60
2018-12-13T10:31:04.256Z,11.93
2018-12-13T10:33:33.379Z,12.27
2018-12-13T10:36:02.562Z,11.60
2018-12-13T10:41:10.812Z,10.43
2018-12-13T10:43:39.936Z,11.18
2018-12-13T10:46:09.023Z,12.00
2018-12-13T10:51:18.194Z,10.57
2018-12-13T10:53:47.416Z,11.03
2018-12-13T10:56:17.608Z,9.57
2018-12-13T10:58:47.748Z,9.23
2018-12-13T11:04:16.629Z,10.00
2018-12-13T11:06:45.786Z,11.63
2018-12-13T11:09:16.168Z,10.30
2018-12-13T11:11:45.403Z,9.00
2018-12-13T11:14:14.572Z,9.13
2018-12-13T11:16:43.720Z,9.27
2018-12-13T11:19:13.057Z,10.40
2018-12-13T11:21:42.201Z,10.35
2018-12-13T11:24:11.457Z,9.18
2018-12-13T11:26:40.556Z,9.33
2018-12-13T11:29:27.439Z,10.70
2018-12-13T11:34:35.789Z,10.83
2018-12-13T11:37:04.935Z,9.37
2018-12-13T11:39:34.072Z,10.50
2018-12-13T11:42:03.200Z,9.50
2018-12-13T11:44:32.294Z,10.10
2018-12-13T11:47:01.413Z,8.40
2018-12-13T11:52:09.742Z,10.57
2018-12-13T11:57:23.327Z,8.87
2018-12-13T11:59:52.411Z,8.33
2018-12-13T12:02:24.175Z,10.00
2018-12-13T12:04:52.705Z,9.00
2018-12-13T12:07:21.825Z,8.80
2018-12-13T12:09:50.976Z,8.60
2018-12-13T12:12:20.950Z,8.38
2018-12-13T12:17:30.145Z,9.57
2018-12-13T12:19:59.264Z,9.30
2018-12-13T12:22:28.513Z,10.17
2018-12-13T12:24:57.596Z,10.70
2018-12-13T12:27:26.810Z,8.07
2018-12-13T12:29:55.998Z,9.68
2018-12-13T12:32:25.307Z,10.55
2018-12-13T12:34:54.496Z,9.80
2018-12-13T12:37:23.631Z,9.70
2018-12-13T12:39:52.772Z,11.73
2018-12-13T12:42:22.798Z,8.90
2018-12-13T12:44:51.968Z,10.97
2018-12-13T12:47:21.368Z,10.65
2018-12-13T12:52:29.109Z,9.53
2018-12-13T12:57:36.967Z,9.80
2018-12-13T13:00:07.925Z,9.40
2018-12-13T13:02:37.672Z,9.63
2018-12-13T13:05:07.304Z,10.43
2018-12-13T13:07:37.648Z,10.97
2018-12-13T13:10:07.740Z,10.60
2018-12-13T13:12:36.925Z,10.70
2018-12-13T13:15:06.191Z,11.70
2018-12-13T13:17:35.305Z,12.70
2018-12-13T13:20:05.035Z,13.27
2018-12-13T13:22:34.156Z,11.90
2018-12-13T13:25:03.495Z,14.73
2018-12-13T13:27:32.789Z,15.30
2018-12-13T13:30:01.939Z,15.08
2018-12-13T13:32:32.274Z,12.77
2018-12-13T13:35:01.491Z,14.40
2018-12-13T13:37:30.653Z,13.37
2018-12-13T13:39:59.863Z,12.10
2018-12-13T13:42:28.983Z,11.40
2018-12-13T13:45:02.445Z,13.32
2018-12-13T13:47:31.648Z,14.90
2018-12-13T13:50:00.779Z,13.40
2018-12-13T13:52:30.885Z,12.30
2018-12-13T13:54:59.970Z,13.03
2018-12-13T14:00:09.905Z,13.63
2018-12-13T14:02:38.988Z,12.95
2018-12-13T14:05:08.309Z,13.83
2018-12-13T14:07:37.526Z,11.38
2018-12-13T14:10:08.058Z,12.80
2018-12-13T14:12:37.271Z,12.43
2018-12-13T14:15:07.253Z,13.17
2018-12-13T14:17:36.427Z,13.67
2018-12-13T14:20:06.028Z,14.13
2018-12-13T14:22:35.139Z,13.50
2018-12-13T14:25:04.547Z,12.60
2018-12-13T14:27:33.813Z,15.70
2018-12-13T14:30:08.528Z,13.20
2018-12-13T14:32:38.282Z,13.50
2018-12-13T14:35:07.672Z,13.33
2018-12-13T14:37:36.852Z,12.40
2018-12-13T14:40:06.238Z,12.90
2018-12-13T14:42:35.480Z,13.60
2018-12-13T14:45:05.319Z,14.53
2018-12-13T14:47:35.461Z,14.40
2018-12-13T14:50:05.683Z,14.33
2018-12-13T14:52:34.764Z,14.80
2018-12-13T14:57:45.817Z,13.73
2018-12-13T15:00:15.063Z,13.57
2018-12-13T15:02:44.161Z,15.10
2018-12-13T15:07:52.587Z,14.40
2018-12-13T15:10:21.710Z,16.00
2018-12-13T15:12:50.844Z,14.43
2018-12-13T15:17:59.556Z,15.07
2018-12-13T15:20:28.740Z,15.37
2018-12-13T15:22:57.827Z,13.50
2018-12-13T15:25:27.111Z,13.58
2018-12-13T15:27:56.199Z,13.80
2018-12-13T15:30:25.535Z,15.37
2018-12-13T15:32:54.861Z,16.45
2018-12-13T15:35:23.979Z,14.98
2018-12-13T15:37:53.904Z,15.45
2018-12-13T15:40:23.796Z,15.43
2018-12-13T15:42:53.925Z,15.38
2018-12-13T15:45:24.143Z,14.72
2018-12-13T15:50:33.174Z,16.03
2018-12-13T15:55:40.956Z,14.80
2018-12-13T16:00:49.331Z,14.03
2018-12-13T16:03:18.457Z,15.40
2018-12-13T16:05:47.551Z,16.07
2018-12-13T16:08:17.745Z,14.37
2018-12-13T16:13:25.948Z,16.07
2018-12-13T16:15:55.040Z,14.47
2018-12-13T16:18:24.441Z,12.65
2018-12-13T16:20:54.309Z,14.25
2018-12-13T16:23:24.394Z,14.34
2018-12-13T16:25:54.499Z,15.18
2018-12-13T16:28:24.643Z,16.40
2018-12-13T16:30:54.616Z,14.25
2018-12-13T16:33:24.752Z,17.20
2018-12-13T16:35:56.323Z,13.70
2018-12-13T16:38:25.578Z,13.20
2018-12-13T16:40:54.721Z,16.20
2018-12-13T16:46:04.081Z,15.83
2018-12-13T16:48:34.390Z,14.37
2018-12-13T16:51:03.536Z,14.20
2018-12-13T16:53:32.705Z,14.73
2018-12-13T16:56:03.044Z,14.55
2018-12-13T17:01:11.059Z,17.20
2018-12-13T17:03:42.405Z,15.53
2018-12-13T17:06:11.693Z,14.83
2018-12-13T17:11:20.161Z,17.00
2018-12-13T17:13:50.429Z,16.40
2018-12-13T17:16:19.779Z,15.03
2018-12-13T17:18:48.808Z,14.97
2018-12-13T17:21:18.126Z,12.57
2018-12-13T17:23:47.336Z,18.67
2018-12-13T17:26:16.610Z,15.03
2018-12-13T17:28:45.717Z,17.40
2018-12-13T17:33:54.481Z,15.07
2018-12-13T17:36:23.720Z,16.02
2018-12-13T17:38:53.130Z,16.13
2018-12-13T17:41:22.280Z,16.80
2018-12-13T17:43:51.391Z,15.87
2018-12-13T17:46:20.667Z,14.20
2018-12-13T17:48:49.790Z,16.57
2018-12-13T17:51:18.932Z,17.10
2018-12-13T17:56:26.975Z,16.83
2018-12-13T17:58:56.183Z,15.23
2018-12-13T18:01:25.902Z,16.52
2018-12-13T18:03:55.978Z,15.63
2018-12-13T18:06:25.989Z,15.45
2018-12-13T18:08:56.384Z,14.38
2018-12-13T18:11:26.117Z,15.60
2018-12-13T18:13:56.047Z,14.73
2018-12-13T18:16:26.268Z,16.08
2018-12-13T18:18:56.340Z,18.17
2018-12-13T18:21:26.641Z,16.74
2018-12-13T18:23:56.179Z,18.00
2018-12-13T18:26:26.323Z,16.00
2018-12-13T18:28:56.469Z,15.43
2018-12-13T18:34:05.824Z,15.67
2018-12-13T18:36:34.927Z,18.80
2018-12-13T18:39:06.834Z,15.87
2018-12-13T18:41:36.255Z,16.83
2018-12-13T18:46:45.042Z,17.37
2018-12-13T18:49:15.039Z,16.33
2018-12-13T18:54:23.244Z,15.93
2018-12-13T18:56:52.315Z,17.00
2018-12-13T18:59:21.548Z,16.93
2018-12-13T19:01:50.700Z,14.77
2018-12-13T19:06:59.293Z,14.83
2018-12-13T19:09:28.384Z,14.30
2018-12-13T19:11:57.528Z,17.57
2018-12-13T19:14:28.425Z,17.02
2018-12-13T19:16:57.566Z,13.43
2018-12-13T19:22:06.192Z,14.20
2018-12-13T19:24:35.264Z,15.00
2018-12-13T19:27:04.373Z,15.48
2018-12-13T19:29:33.737Z,15.30
2018-12-13T19:32:03.101Z,15.87
2018-12-13T19:34:32.230Z,17.50
2018-12-13T19:37:01.421Z,19.30
2018-12-13T19:39:32.483Z,18.82
2018-12-13T19:42:01.707Z,15.70
2018-12-13T19:47:09.912Z,20.13
2018-12-13T19:49:39.101Z,18.97
2018-12-13T19:52:09.421Z,17.03
2018-12-13T19:54:38.544Z,15.15
2018-12-13T19:57:07.753Z,16.37
2018-12-13T19:59:36.957Z,16.45
2018-12-13T20:04:45.006Z,18.73
2018-12-13T20:07:14.110Z,16.43
2018-12-13T20:09:43.303Z,16.17
2018-12-13T20:12:12.528Z,16.90
2018-12-13T20:14:41.772Z,18.47
2018-12-13T20:17:12.184Z,16.97
2018-12-13T20:19:41.396Z,18.27
2018-12-13T20:22:10.568Z,17.13
2018-12-13T20:24:39.873Z,18.20
2018-12-13T20:27:08.996Z,19.47
2018-12-13T20:29:38.472Z,19.25
2018-12-13T20:32:07.713Z,15.23
2018-12-13T20:34:36.941Z,17.00
2018-12-13T20:37:06.085Z,15.83
2018-12-13T20:39:35.220Z,17.27
2018-12-13T20:42:04.348Z,16.03
2018-12-13T20:44:33.483Z,14.26
2018-12-13T20:47:02.638Z,14.65
2018-12-13T20:52:09.891Z,16.70
2018-12-13T20:54:38.972Z,15.60
2018-12-13T20:59:47.158Z,15.40
2018-12-13T21:02:17.516Z,15.90
2018-12-13T21:04:46.576Z,14.63
2018-12-13T21:10:05.615Z,13.83
2018-12-13T21:15:16.107Z,13.80
2018-12-13T21:17:45.236Z,15.17
2018-12-13T21:20:14.329Z,14.20
2018-12-13T21:22:43.460Z,16.40
2018-12-13T21:25:12.744Z,14.80
2018-12-13T21:27:41.820Z,15.70
2018-12-13T21:30:11.218Z,14.68
2018-12-13T21:32:40.533Z,14.97
2018-12-13T21:35:09.878Z,14.97
2018-12-13T21:37:39.211Z,15.38
2018-12-13T21:42:47.604Z,17.70
2018-12-13T21:45:16.788Z,16.07
2018-12-13T21:50:27.397Z,14.10
2018-12-13T21:52:56.564Z,15.83
2018-12-13T21:55:25.810Z,14.25
2018-12-13T21:57:54.984Z,14.50
2018-12-13T22:03:03.379Z,15.47
2018-12-13T22:05:32.496Z,13.50
2018-12-13T22:08:01.563Z,15.87
2018-12-13T22:10:30.717Z,15.80
2018-12-13T22:15:39.106Z,13.57
2018-12-13T22:18:08.250Z,16.97
2018-12-13T22:20:37.492Z,14.60
2018-12-13T22:23:07.536Z,16.07
2018-12-13T22:25:36.638Z,15.97
2018-12-13T22:28:05.858Z,15.10
2018-12-13T22:30:34.971Z,14.67
2018-12-13T22:33:04.168Z,15.03
2018-12-13T22:35:33.340Z,15.07
2018-12-13T22:38:02.396Z,16.73
2018-12-13T22:40:31.552Z,17.20
2018-12-13T22:43:00.705Z,17.65
2018-12-13T22:45:29.943Z,18.07
2018-12-13T22:47:59.915Z,15.50
2018-12-13T22:50:29.859Z,16.50
2018-12-13T22:53:01.469Z,14.95
2018-12-13T22:55:30.669Z,17.70
2018-12-13T22:58:00.132Z,15.18
2018-12-13T23:03:10.692Z,17.83
2018-12-13T23:05:39.965Z,16.02
2018-12-13T23:08:09.088Z,17.45
2018-12-13T23:13:19.084Z,15.67
2018-12-13T23:15:48.175Z,15.70
2018-12-13T23:18:18.817Z,16.07
2018-12-13T23:20:48.011Z,16.23
2018-12-13T23:23:17.923Z,16.82
2018-12-13T23:25:47.035Z,16.85
2018-12-13T23:28:16.151Z,19.37
2018-12-13T23:30:45.293Z,15.15
2018-12-13T23:33:14.380Z,17.30
2018-12-13T23:35:43.589Z,16.67
2018-12-13T23:40:52.029Z,16.20
2018-12-13T23:45:59.803Z,16.30
2018-12-13T23:48:28.928Z,16.63
2018-12-13T23:50:58.063Z,15.17
2018-12-13T23:53:27.519Z,16.50
2018-12-13T23:58:34.928Z,14.97
